Time;durP1;ratioP1;P1;durP2;ratioP2;P2;SDS_P1;SDS_P2;PMS_P1;PMS_P2;Temp;Humidity;BMP_temperature;BMP_pressure;BME280_temperature;BME280_humidity;BME280_pressure;Samples;Min_cycle;Max_cycle;Signal;HPM_P1;HPM_P2
2023/05/15 00:00:50;;;;;;;2.08;1.90;;;;;;;24.89;42.63;101426.97;5060782;27;97004;-74
2023/05/15 00:03:17;;;;;;;2.58;2.25;;;;;;;24.89;42.84;101424.22;5043018;27;96889;-75
2023/05/15 00:05:43;;;;;;;2.20;1.95;;;;;;;24.89;42.69;101420.63;5044975;27;96911;-75
2023/05/15 00:08:10;;;;;;;2.33;2.13;;;;;;;24.88;42.70;101422.53;5045134;27;96818;-75
2023/05/15 00:10:36;;;;;;;2.20;1.80;;;;;;;24.88;43.07;101416.19;5044919;27;96860;-75
2023/05/15 00:13:06;;;;;;;2.40;2.00;;;;;;;24.88;43.04;101418.94;5031181;27;100785;-74
2023/05/15 00:15:32;;;;;;;1.92;1.73;;;;;;;24.88;42.60;101418.94;5035250;27;97593;-74
2023/05/15 00:17:59;;;;;;;2.50;2.30;;;;;;;24.88;42.67;101413.44;5040428;27;97241;-75
2023/05/15 00:20:25;;;;;;;2.25;1.95;;;;;;;24.88;42.81;101417.03;5051137;27;98990;-75
2023/05/15 00:22:52;;;;;;;3.17;2.00;;;;;;;24.88;42.66;101410.69;5046513;27;97015;-74
2023/05/15 00:25:19;;;;;;;2.10;1.90;;;;;;;24.87;42.83;101418.06;5040716;27;97300;-75
2023/05/15 00:27:45;;;;;;;1.95;1.80;;;;;;;24.88;42.73;101410.69;5042990;27;96974;-75
2023/05/15 00:30:12;;;;;;;1.80;1.70;;;;;;;24.87;42.73;101403.47;5041796;27;96946;-75
2023/05/15 00:32:39;;;;;;;2.38;1.92;;;;;;;24.87;42.52;101406.22;5038514;27;101214;-75
2023/05/15 00:35:06;;;;;;;2.53;1.88;;;;;;;24.87;42.83;101403.47;5044295;27;96812;-74
2023/05/15 00:37:32;;;;;;;2.13;1.92;;;;;;;24.88;42.47;101405.19;5036252;27;96686;-75
2023/05/15 00:39:59;;;;;;;2.70;1.75;;;;;;;24.87;42.52;101398.00;5043439;27;97688;-74
2023/05/15 00:42:26;;;;;;;2.20;2.00;;;;;;;24.87;42.80;101392.50;5041192;27;96756;-76
2023/05/15 00:44:55;;;;;;;2.03;1.90;;;;;;;24.87;42.70;101400.75;5021939;27;98558;-75
2023/05/15 00:47:23;;;;;;;2.72;2.20;;;;;;;24.86;42.65;101405.38;5040200;27;96735;-75
2023/05/15 00:49:51;;;;;;;2.42;2.20;;;;;;;24.87;42.73;101403.47;5047655;27;96621;-74
2023/05/15 00:52:19;;;;;;;3.28;2.20;;;;;;;24.87;42.53;101395.25;5043834;27;97720;-75
2023/05/15 00:54:47;;;;;;;2.53;1.80;;;;;;;24.86;42.97;101388.03;5033476;27;100325;-75
2023/05/15 00:57:16;;;;;;;2.05;1.85;;;;;;;24.86;42.71;101386.16;5043376;27;96788;-74
2023/05/15 00:59:44;;;;;;;2.03;1.67;;;;;;;24.85;42.80;101378.94;5045314;27;97164;-74
2023/05/15 01:02:18;;;;;;;2.10;1.77;;;;;;;24.86;42.58;101382.53;5041612;27;99884;-77
2023/05/15 01:04:44;;;;;;;2.15;1.83;;;;;;;24.85;42.59;101380.84;5039903;27;96768;-77
2023/05/15 01:07:13;;;;;;;1.95;1.70;;;;;;;24.85;42.74;101378.94;5043201;27;96648;-77
2023/05/15 01:09:43;;;;;;;2.30;1.80;;;;;;;24.84;42.56;101377.25;5044322;27;96802;-77
2023/05/15 01:12:13;;;;;;;2.60;2.08;;;;;;;24.85;42.75;101383.59;5042491;27;96982;-77
2023/05/15 01:14:40;;;;;;;2.20;1.85;;;;;;;24.84;42.72;101381.88;5038931;27;99110;-77
2023/05/15 01:17:07;;;;;;;3.15;2.10;;;;;;;24.84;42.80;101379.13;5045723;27;97129;-77
2023/05/15 01:19:34;;;;;;;2.00;1.80;;;;;;;24.84;42.83;101379.13;5045211;27;96976;-77
2023/05/15 01:22:10;;;;;;;2.35;1.75;;;;;;;24.85;42.84;101384.44;5042050;27;96828;-77
2023/05/15 01:25:08;;;;;;;2.28;1.80;;;;;;;24.85;43.01;101383.59;5039744;27;97118;-77
2023/05/15 01:27:38;;;;;;;2.85;2.17;;;;;;;24.83;42.91;101383.78;5044027;27;96786;-77
2023/05/15 01:30:31;;;;;;;2.42;1.95;;;;;;;24.83;42.93;101386.53;5043784;27;97280;-77
2023/05/15 01:33:19;;;;;;;2.20;2.00;;;;;;;24.82;42.76;101383.97;5047218;27;99675;-77
2023/05/15 01:35:58;;;;;;;2.60;1.80;;;;;;;24.81;42.78;101380.38;5043032;27;98797;-77
2023/05/15 01:38:38;;;;;;;1.80;1.70;;;;;;;24.81;42.66;101363.88;5047787;27;97148;-77
2023/05/15 01:41:21;;;;;;;1.92;1.73;;;;;;;24.80;42.67;101375.91;5049469;27;96660;-77
2023/05/15 01:43:54;;;;;;;2.28;1.80;;;;;;;24.78;42.89;101367.00;5040149;27;98512;-77
2023/05/15 01:46:22;;;;;;;2.00;1.80;;;;;;;24.79;42.75;101373.34;5039717;27;97303;-77
2023/05/15 01:48:50;;;;;;;2.03;1.92;;;;;;;24.79;42.67;101365.97;5045690;27;96876;-76
2023/05/15 01:51:19;;;;;;;2.20;2.00;;;;;;;24.79;42.71;101363.22;5042761;27;96883;-76
2023/05/15 01:53:46;;;;;;;4.05;1.80;;;;;;;24.80;42.75;101369.56;5044470;27;98840;-76
2023/05/15 01:56:14;;;;;;;2.30;1.70;;;;;;;24.80;42.53;101364.06;5031898;27;99266;-77
2023/05/15 01:58:43;;;;;;;2.17;1.90;;;;;;;24.79;42.52;101374.22;5057283;27;96738;-76
2023/05/15 02:01:10;;;;;;;1.80;1.70;;;;;;;24.79;42.67;101362.38;5049598;27;97094;-77
2023/05/15 02:03:36;;;;;;;2.83;1.85;;;;;;;24.80;42.73;101353.09;5040032;27;97119;-76
2023/05/15 02:06:04;;;;;;;1.85;1.70;;;;;;;24.79;42.77;101357.72;5046006;27;97493;-76
2023/05/15 02:08:32;;;;;;;2.10;1.90;;;;;;;24.79;42.56;101352.22;5028256;27;97047;-77
2023/05/15 02:11:00;;;;;;;2.00;1.90;;;;;;;24.79;42.69;101348.63;5042270;27;97066;-77
2023/05/15 02:13:27;;;;;;;1.92;1.70;;;;;;;24.79;42.52;101356.88;5044457;27;100781;-77
2023/05/15 02:15:54;;;;;;;1.90;1.70;;;;;;;24.79;42.61;101359.63;5055775;27;101210;-77
2023/05/15 02:18:21;;;;;;;3.03;1.88;;;;;;;24.79;42.67;101354.97;5047256;27;96608;-77
2023/05/15 02:20:47;;;;;;;2.50;1.83;;;;;;;24.78;42.68;101367.00;5047103;27;97010;-76
2023/05/15 02:23:14;;;;;;;2.13;1.92;;;;;;;24.79;42.68;101367.88;5042814;27;96829;-76
2023/05/15 02:25:45;;;;;;;2.00;1.75;;;;;;;24.80;42.77;101358.56;5044864;27;97210;-77
2023/05/15 02:28:21;;;;;;;1.92;1.83;;;;;;;24.80;42.53;101358.56;5037185;27;97140;-77
2023/05/15 02:30:55;;;;;;;2.08;1.90;;;;;;;24.78;42.68;101356.03;5050183;27;96813;-77
2023/05/15 02:33:35;;;;;;;1.70;1.60;;;;;;;24.77;42.77;101359.81;5048306;27;97707;-76
2023/05/15 02:36:06;;;;;;;1.90;1.80;;;;;;;24.78;42.57;101361.50;5039714;27;96863;-77
2023/05/15 02:38:52;;;;;;;1.98;1.70;;;;;;;24.78;42.64;101358.78;5044905;27;96854;-76
2023/05/15 02:41:20;;;;;;;1.60;1.48;;;;;;;24.77;42.66;101370.81;5048110;27;97118;-77
2023/05/15 02:43:54;;;;;;;1.70;1.60;;;;;;;24.77;42.72;101365.31;5045877;27;96832;-76
2023/05/15 02:46:25;;;;;;;2.50;2.20;;;;;;;24.76;42.65;101355.34;5045917;27;96915;-77
2023/05/15 02:48:52;;;;;;;1.90;1.80;;;;;;;24.76;42.54;101355.34;5049507;27;96884;-77
2023/05/15 02:51:19;;;;;;;1.95;1.60;;;;;;;24.76;42.66;101355.34;5042952;27;96834;-77
2023/05/15 02:53:47;;;;;;;2.03;1.55;;;;;;;24.77;42.76;101347.97;5037212;27;97696;-77
2023/05/15 02:56:13;;;;;;;2.25;1.70;;;;;;;24.77;42.83;101347.97;5041191;27;98247;-76
2023/05/15 02:58:40;;;;;;;2.47;1.80;;;;;;;24.76;42.48;101344.38;5043260;27;96837;-77
2023/05/15 03:01:07;;;;;;;1.80;1.27;;;;;;;24.75;42.71;101350.91;5041870;27;96903;-76
2023/05/15 03:03:34;;;;;;;1.90;1.65;;;;;;;24.75;42.75;101345.41;5048545;27;99169;-76
2023/05/15 03:06:00;;;;;;;1.80;1.70;;;;;;;24.76;42.43;101340.78;5034696;27;97310;-76
2023/05/15 03:08:27;;;;;;;1.95;1.70;;;;;;;24.77;42.76;101342.47;5048013;27;96884;-76
2023/05/15 03:10:54;;;;;;;1.70;1.60;;;;;;;24.76;42.45;101355.34;5045573;27;96858;-76
2023/05/15 03:13:20;;;;;;;2.30;1.90;;;;;;;24.75;42.57;101355.56;5047456;27;97538;-77
2023/05/15 03:15:47;;;;;;;1.95;1.80;;;;;;;24.75;42.39;101348.16;5043641;27;97027;-76
2023/05/15 03:18:14;;;;;;;2.08;1.90;;;;;;;24.75;42.66;101353.66;5045336;27;96650;-76
2023/05/15 03:20:44;;;;;;;1.73;1.60;;;;;;;24.74;42.65;101351.94;5043864;27;96823;-77
2023/05/15 03:23:11;;;;;;;2.30;2.10;;;;;;;24.75;42.85;101361.03;5042982;27;97367;-76
2023/05/15 03:25:37;;;;;;;1.95;1.75;;;;;;;24.75;42.71;101361.03;5045844;27;96908;-77
2023/05/15 03:28:04;;;;;;;1.70;1.60;;;;;;;24.75;42.79;101352.81;5043913;27;96729;-77
2023/05/15 03:30:30;;;;;;;2.28;1.80;;;;;;;24.74;42.68;101342.84;5030116;27;96955;-76
2023/05/15 03:32:57;;;;;;;1.77;1.65;;;;;;;24.74;42.72;101343.72;5046240;27;100366;-76
2023/05/15 03:35:25;;;;;;;1.70;1.60;;;;;;;24.74;42.53;101351.94;5042678;27;97510;-77
2023/05/15 03:37:51;;;;;;;1.52;1.42;;;;;;;24.73;42.62;101347.50;5021560;27;97341;-76
2023/05/15 03:40:18;;;;;;;1.70;1.50;;;;;;;24.74;42.43;101342.84;5041515;27;96834;-76
2023/05/15 03:42:45;;;;;;;2.15;1.80;;;;;;;24.73;42.71;101347.50;5038064;27;98077;-77
2023/05/15 03:45:12;;;;;;;2.13;1.92;;;;;;;24.73;42.52;101346.66;5032759;27;99023;-76
2023/05/15 03:47:38;;;;;;;1.60;1.50;;;;;;;24.72;42.55;101334.81;5038256;27;97006;-77
2023/05/15 03:50:05;;;;;;;2.08;1.88;;;;;;;24.73;42.78;101352.13;5035561;27;97417;-77
2023/05/15 03:52:32;;;;;;;1.88;1.70;;;;;;;24.72;42.65;101345.78;5039645;27;96658;-76
2023/05/15 03:54:58;;;;;;;2.42;1.48;;;;;;;24.71;42.59;101344.09;5042134;27;98357;-76
2023/05/15 03:57:25;;;;;;;1.65;1.55;;;;;;;24.71;43.07;101344.94;5046429;27;96802;-77
2023/05/15 03:59:51;;;;;;;1.90;1.73;;;;;;;24.73;42.67;101346.66;5043389;27;96792;-77
2023/05/15 04:02:18;;;;;;;1.63;1.52;;;;;;;24.71;42.72;101344.09;5040279;27;97252;-77
2023/05/15 04:04:45;;;;;;;3.05;1.83;;;;;;;24.70;42.97;101359.72;5034422;27;96979;-77
2023/05/15 04:07:11;;;;;;;1.70;1.60;;;;;;;24.71;42.65;101357.81;5037251;27;96752;-77
2023/05/15 04:09:38;;;;;;;1.80;1.70;;;;;;;24.71;42.39;101350.44;5041228;27;96692;-76
2023/05/15 04:12:04;;;;;;;2.45;1.70;;;;;;;24.70;42.66;101343.22;5044888;27;96847;-76
2023/05/15 04:14:31;;;;;;;2.15;1.73;;;;;;;24.69;42.56;101338.78;5043242;27;97904;-77
2023/05/15 04:16:58;;;;;;;1.67;1.58;;;;;;;24.71;42.55;101338.59;5049014;27;97097;-77
2023/05/15 04:19:24;;;;;;;2.53;1.90;;;;;;;24.70;42.79;101340.50;5048014;27;96839;-77
2023/05/15 04:21:51;;;;;;;1.70;1.60;;;;;;;24.68;42.45;101345.31;5045772;27;97545;-77
2023/05/15 04:24:17;;;;;;;2.03;1.77;;;;;;;24.68;42.52;101350.81;5041505;27;96646;-77
2023/05/15 04:26:44;;;;;;;2.05;1.85;;;;;;;24.69;42.48;101352.53;5042170;27;96695;-76
2023/05/15 04:29:10;;;;;;;1.70;1.60;;;;;;;24.69;42.56;101354.41;5038945;27;96850;-77
2023/05/15 04:31:37;;;;;;;1.80;1.70;;;;;;;24.70;42.58;101353.38;5044362;27;97947;-76
2023/05/15 04:34:04;;;;;;;2.08;1.88;;;;;;;24.69;42.46;101340.69;5037238;27;96739;-77
2023/05/15 04:36:31;;;;;;;1.73;1.63;;;;;;;24.68;42.40;101341.72;5048226;27;96827;-76
2023/05/15 04:38:57;;;;;;;2.17;1.73;;;;;;;24.67;42.51;101338.13;5051851;27;97321;-76
2023/05/15 04:41:24;;;;;;;1.77;1.67;;;;;;;24.68;42.60;101345.31;5047583;27;98262;-76
2023/05/15 04:43:51;;;;;;;2.20;1.70;;;;;;;24.68;42.67;101349.97;5049591;27;96784;-77
2023/05/15 04:46:17;;;;;;;1.73;1.60;;;;;;;24.67;42.49;101354.59;5044266;27;96927;-76
2023/05/15 04:48:44;;;;;;;1.70;1.60;;;;;;;24.67;42.49;101354.59;5036753;27;96945;-77
2023/05/15 04:51:11;;;;;;;1.55;1.42;;;;;;;24.67;42.45;101364.72;5042479;27;98306;-75
2023/05/15 04:53:37;;;;;;;1.80;1.70;;;;;;;24.67;42.68;101368.34;5047559;27;96931;-75
2023/05/15 04:56:04;;;;;;;2.67;1.70;;;;;;;24.66;42.64;101369.38;5028962;27;97396;-75
2023/05/15 04:58:30;;;;;;;1.60;1.50;;;;;;;24.67;42.58;101381.22;5031329;27;96940;-76
2023/05/15 05:00:57;;;;;;;2.03;1.83;;;;;;;24.67;42.55;101378.47;5037423;27;97587;-76
2023/05/15 05:03:23;;;;;;;1.60;1.50;;;;;;;24.66;42.37;101376.75;5033567;27;96783;-75
2023/05/15 05:05:50;;;;;;;1.60;1.50;;;;;;;24.65;42.19;101378.66;5044545;27;98525;-76
2023/05/15 05:08:16;;;;;;;2.22;2.03;;;;;;;24.66;42.82;101385.00;5041508;27;96792;-75
2023/05/15 05:10:43;;;;;;;1.95;1.60;;;;;;;24.66;42.65;101385.84;5037207;27;96948;-76
2023/05/15 05:13:09;;;;;;;1.67;1.58;;;;;;;24.65;42.60;101389.63;5050045;27;96872;-76
2023/05/15 05:15:36;;;;;;;2.00;1.60;;;;;;;24.65;42.59;101394.28;5044762;27;96831;-75
2023/05/15 05:18:03;;;;;;;2.00;1.80;;;;;;;24.66;42.47;101391.34;5036606;27;96814;-75
2023/05/15 05:20:30;;;;;;;1.92;1.73;;;;;;;24.65;42.54;101403.38;5041849;27;96653;-76
2023/05/15 05:22:56;;;;;;;1.80;1.70;;;;;;;24.65;42.48;101405.28;5039994;27;97272;-75
2023/05/15 05:25:23;;;;;;;1.80;1.70;;;;;;;24.64;42.40;101407.16;5040748;27;96701;-76
2023/05/15 05:27:50;;;;;;;1.92;1.75;;;;;;;24.65;42.64;101414.34;5045129;27;96871;-75
2023/05/15 05:30:16;;;;;;;2.05;1.60;;;;;;;24.64;42.27;101409.91;5034053;27;97520;-76
2023/05/15 05:32:43;;;;;;;1.77;1.60;;;;;;;24.65;42.63;101408.88;5039898;27;97395;-76
2023/05/15 05:35:09;;;;;;;2.25;2.05;;;;;;;24.66;42.70;101409.72;5044530;27;97059;-75
2023/05/15 05:37:36;;;;;;;1.75;1.60;;;;;;;24.65;42.28;101406.13;5035048;27;96820;-75
2023/05/15 05:40:07;;;;;;;1.80;1.70;;;;;;;24.66;42.51;101412.47;5037607;27;100865;-76
2023/05/15 05:42:34;;;;;;;1.90;1.80;;;;;;;24.65;42.27;101414.34;5042808;27;97833;-76
2023/05/15 05:45:00;;;;;;;2.10;1.83;;;;;;;24.65;42.37;101408.88;5040406;27;96615;-75
2023/05/15 05:47:27;;;;;;;1.88;1.73;;;;;;;24.65;42.20;101413.50;5040323;27;96644;-74
2023/05/15 05:49:54;;;;;;;2.13;2.00;;;;;;;24.65;42.39;101411.63;5045262;27;98778;-75
2023/05/15 05:52:20;;;;;;;2.92;1.80;;;;;;;24.65;42.23;101417.09;5035708;27;97799;-75
2023/05/15 05:54:47;;;;;;;1.90;1.70;;;;;;;24.66;42.44;101428.94;5046370;27;97398;-75
2023/05/15 05:57:13;;;;;;;1.98;1.77;;;;;;;24.66;42.50;101426.19;5041488;27;96859;-75
2023/05/15 05:59:40;;;;;;;1.70;1.60;;;;;;;24.65;42.41;101417.09;5049147;27;97554;-75
2023/05/15 06:02:07;;;;;;;1.60;1.50;;;;;;;24.65;42.53;101417.09;5044478;27;99018;-75
2023/05/15 06:04:33;;;;;;;2.00;1.85;;;;;;;24.65;42.46;101408.88;5042750;27;96759;-74
2023/05/15 06:07:00;;;;;;;2.85;2.30;;;;;;;24.65;42.53;101411.63;5040097;27;96991;-75
2023/05/15 06:09:28;;;;;;;2.10;1.55;;;;;;;24.66;42.51;101406.97;5040268;27;97556;-75
2023/05/15 06:11:54;;;;;;;2.03;1.90;;;;;;;24.65;42.16;101400.63;5049140;27;96561;-75
2023/05/15 06:14:22;;;;;;;2.30;2.10;;;;;;;24.65;42.60;101402.53;5049359;27;97102;-75
2023/05/15 06:16:48;;;;;;;1.95;1.75;;;;;;;24.66;42.42;101406.97;5041340;27;98775;-75
2023/05/15 06:19:15;;;;;;;2.10;1.90;;;;;;;24.65;42.64;101411.63;5047838;27;97709;-74
2023/05/15 06:21:42;;;;;;;2.05;1.80;;;;;;;24.65;42.17;101414.34;5049833;27;97892;-74
2023/05/15 06:24:08;;;;;;;1.92;1.70;;;;;;;24.65;42.45;101414.34;5043868;27;96717;-74
2023/05/15 06:26:35;;;;;;;1.80;1.70;;;;;;;24.65;42.19;101419.84;5046910;27;97113;-74
2023/05/15 06:29:02;;;;;;;2.30;2.10;;;;;;;24.65;42.63;101417.09;5041383;27;97804;-73
2023/05/15 06:31:28;;;;;;;2.55;1.90;;;;;;;24.65;42.21;101422.59;5039027;27;96792;-74
2023/05/15 06:33:55;;;;;;;2.63;1.90;;;;;;;24.65;42.26;101422.59;5041157;27;97027;-74
2023/05/15 06:36:21;;;;;;;2.28;1.95;;;;;;;24.65;42.47;101411.63;5034467;27;96835;-74
2023/05/15 06:38:48;;;;;;;2.03;1.83;;;;;;;24.66;42.01;101413.31;5034496;27;97100;-74
2023/05/15 06:41:14;;;;;;;2.15;1.95;;;;;;;24.66;42.42;101412.47;5035460;27;98266;-74
2023/05/15 06:43:41;;;;;;;2.35;1.75;;;;;;;24.66;42.75;101413.31;5028225;27;97195;-74
2023/05/15 06:46:07;;;;;;;2.20;2.00;;;;;;;24.66;42.42;101412.47;5050512;27;96641;-74
2023/05/15 06:48:35;;;;;;;2.42;2.22;;;;;;;24.67;42.37;101419.66;5061812;27;97401;-74
2023/05/15 06:51:01;;;;;;;2.30;2.10;;;;;;;24.67;42.23;101414.16;5053243;27;97789;-74
2023/05/15 06:53:28;;;;;;;2.28;2.08;;;;;;;24.67;42.50;101409.53;5029544;27;96800;-74
2023/05/15 06:55:55;;;;;;;2.50;2.30;;;;;;;24.68;42.13;101407.63;5044148;27;96666;-74
2023/05/15 06:58:21;;;;;;;2.58;2.17;;;;;;;24.69;42.44;101409.34;5038225;27;98459;-74
2023/05/15 07:00:48;;;;;;;2.78;2.50;;;;;;;24.68;42.42;101403.00;5058204;27;96991;-74
2023/05/15 07:03:15;;;;;;;3.60;2.60;;;;;;;24.68;42.51;101400.25;5032634;27;97808;-74
2023/05/15 07:05:42;;;;;;;2.85;2.45;;;;;;;24.69;42.38;101414.84;5033967;27;97194;-74
2023/05/15 07:08:08;;;;;;;2.60;2.40;;;;;;;24.69;42.30;101410.19;5044731;27;96868;-74
2023/05/15 07:10:35;;;;;;;2.50;2.30;;;;;;;24.70;42.13;101416.53;5055301;27;96738;-74
2023/05/15 07:13:01;;;;;;;2.75;2.38;;;;;;;24.69;42.41;101415.69;5047336;27;96698;-74
2023/05/15 07:15:28;;;;;;;2.47;2.28;;;;;;;24.69;42.41;101412.94;5057448;27;96889;-74
2023/05/15 07:17:54;;;;;;;2.95;2.55;;;;;;;24.71;42.07;101412.75;5050146;27;98142;-74
2023/05/15 07:20:21;;;;;;;3.08;2.45;;;;;;;24.71;42.50;101410.00;5061927;27;97743;-74
2023/05/15 07:22:48;;;;;;;3.08;2.78;;;;;;;24.70;42.32;101408.31;5059634;27;96915;-74
2023/05/15 07:25:23;;;;;;;2.50;2.30;;;;;;;24.71;42.30;101410.88;5061717;27;97195;-74
2023/05/15 07:27:50;;;;;;;3.90;3.13;;;;;;;24.71;42.25;101412.75;5049302;27;96799;-74
2023/05/15 07:30:17;;;;;;;2.70;2.28;;;;;;;24.72;42.19;101414.47;5050920;27;96874;-74
2023/05/15 07:32:44;;;;;;;2.75;2.53;;;;;;;24.72;42.47;101403.47;5050647;27;97154;-74
2023/05/15 07:35:10;;;;;;;2.92;2.35;;;;;;;24.71;42.02;101405.38;5048892;27;96900;-74
2023/05/15 07:37:37;;;;;;;3.30;2.63;;;;;;;24.73;42.44;101399.69;5050642;27;97947;-74
2023/05/15 07:40:05;;;;;;;2.40;2.20;;;;;;;24.74;42.43;101395.03;5047994;27;96816;-74
2023/05/15 07:42:31;;;;;;;3.70;2.50;;;;;;;24.74;42.38;101406.03;5051389;27;96625;-74
2023/05/15 07:44:58;;;;;;;2.95;2.58;;;;;;;24.74;42.40;101403.28;5049645;27;97093;-74
2023/05/15 07:47:24;;;;;;;3.25;2.92;;;;;;;24.74;42.49;101406.88;5049051;27;96884;-74
2023/05/15 07:49:51;;;;;;;3.28;2.83;;;;;;;24.74;42.32;101403.28;5050650;27;98673;-74
2023/05/15 07:52:18;;;;;;;3.80;3.03;;;;;;;24.75;42.30;101399.50;5049515;27;96969;-74
2023/05/15 07:54:44;;;;;;;3.20;2.80;;;;;;;24.75;42.23;101397.59;5048256;27;96801;-74
2023/05/15 07:57:11;;;;;;;4.45;3.00;;;;;;;24.75;42.82;101407.75;5050415;27;98036;-74
2023/05/15 07:59:38;;;;;;;3.10;2.80;;;;;;;24.75;42.23;101400.34;5048529;27;97236;-74
2023/05/15 08:02:05;;;;;;;3.17;2.60;;;;;;;24.76;42.23;101404.81;5041290;27;96819;-74
2023/05/15 08:04:32;;;;;;;3.25;2.83;;;;;;;24.77;42.21;101408.41;5030505;27;97871;-74
2023/05/15 08:06:59;;;;;;;3.22;2.92;;;;;;;24.76;42.36;101402.06;5030612;27;97338;-74
2023/05/15 08:09:25;;;;;;;3.75;3.35;;;;;;;24.77;42.38;101408.41;5030489;27;96708;-74
2023/05/15 08:11:55;;;;;;;2.80;2.60;;;;;;;24.77;42.41;101403.75;5040856;27;97107;-74
2023/05/15 08:14:21;;;;;;;4.32;2.80;;;;;;;24.78;42.29;101404.63;5036383;27;97708;-74
2023/05/15 08:16:50;;;;;;;4.25;2.90;;;;;;;24.78;42.44;101399.97;5050806;27;97932;-74
2023/05/15 08:19:18;;;;;;;3.15;2.85;;;;;;;24.78;42.07;101399.97;5050482;27;96625;-75
2023/05/15 08:21:44;;;;;;;3.42;2.92;;;;;;;24.78;42.31;101399.97;5050552;27;97109;-75
2023/05/15 08:24:11;;;;;;;3.45;3.15;;;;;;;24.79;42.50;101403.56;5048009;27;97378;-74
2023/05/15 08:26:37;;;;;;;5.30;3.25;;;;;;;24.80;42.51;101394.28;5050071;27;97667;-74
2023/05/15 08:29:04;;;;;;;3.10;2.90;;;;;;;24.79;42.61;101390.69;5048892;27;98502;-75
2023/05/15 08:31:30;;;;;;;3.88;3.25;;;;;;;24.80;42.22;101397.88;5050465;27;96745;-74
2023/05/15 08:33:57;;;;;;;4.20;2.97;;;;;;;24.80;42.37;101399.78;5048555;27;97219;-75
2023/05/15 08:36:24;;;;;;;4.50;3.42;;;;;;;24.81;42.40;101393.25;5048523;27;99688;-75
2023/05/15 08:38:50;;;;;;;3.05;2.72;;;;;;;24.81;42.51;101393.25;5049786;27;97753;-74
2023/05/15 08:41:30;;;;;;;3.50;3.20;;;;;;;24.82;42.19;101383.97;5054102;27;97216;-74
2023/05/15 08:44:08;;;;;;;3.38;3.08;;;;;;;24.81;42.28;101388.59;5026114;27;97329;-74
2023/05/15 08:46:35;;;;;;;3.35;2.92;;;;;;;24.82;42.40;101383.97;5053502;27;96950;-74
2023/05/15 08:49:10;;;;;;;3.60;3.28;;;;;;;24.83;42.19;101385.66;5051824;27;97290;-74
2023/05/15 08:51:37;;;;;;;3.53;3.00;;;;;;;24.82;42.42;101383.97;5053669;27;96778;-75
2023/05/15 08:54:04;;;;;;;3.15;2.85;;;;;;;24.81;42.03;101374.88;5053569;27;96858;-75
2023/05/15 08:56:31;;;;;;;3.60;3.30;;;;;;;24.82;42.27;101373.84;5032713;27;98747;-75
2023/05/15 08:58:58;;;;;;;4.85;3.42;;;;;;;24.83;42.07;101374.69;5033806;27;97425;-74
2023/05/15 09:01:26;;;;;;;3.67;3.25;;;;;;;24.84;42.37;101376.38;5050532;27;96713;-74
2023/05/15 09:03:52;;;;;;;3.70;3.33;;;;;;;24.83;42.29;101369.19;5053640;27;96863;-75
2023/05/15 09:06:19;;;;;;;3.88;3.20;;;;;;;24.84;42.31;101369.00;5053592;27;98253;-75
2023/05/15 09:08:47;;;;;;;2.97;2.75;;;;;;;24.84;42.07;101366.25;5054449;27;97279;-75
2023/05/15 09:11:14;;;;;;;3.70;3.40;;;;;;;24.85;42.23;101378.09;5052340;27;97289;-75
2023/05/15 09:13:40;;;;;;;3.88;3.55;;;;;;;24.84;41.95;101370.91;5051909;27;96899;-75
2023/05/15 09:16:07;;;;;;;4.00;3.15;;;;;;;24.85;41.74;101367.09;5050935;27;98714;-75
2023/05/15 09:18:34;;;;;;;3.58;3.28;;;;;;;24.85;42.28;101367.97;5053615;27;96746;-74
2023/05/15 09:21:26;;;;;;;3.78;3.42;;;;;;;24.86;42.13;101369.66;5053314;27;97410;-75
2023/05/15 09:24:36;;;;;;;4.43;3.90;;;;;;;24.86;42.31;101368.81;5034568;27;96889;-74
2023/05/15 09:27:05;;;;;;;3.45;3.15;;;;;;;24.84;42.37;101370.91;4935916;28;99804;-75
2023/05/15 09:29:33;;;;;;;3.63;3.25;;;;;;;24.85;42.14;101372.59;4970587;28;96922;-74
2023/05/15 09:32:03;;;;;;;3.97;3.58;;;;;;;24.86;41.98;101374.31;5014110;27;96736;-75
2023/05/15 09:34:34;;;;;;;3.85;3.45;;;;;;;24.86;42.32;101382.53;5053059;27;96755;-75
2023/05/15 09:37:02;;;;;;;4.72;3.53;;;;;;;24.87;42.17;101381.50;5049965;27;98896;-75
2023/05/15 09:39:29;;;;;;;3.95;3.17;;;;;;;24.87;42.13;101367.75;5052138;27;96805;-75
2023/05/15 09:42:10;;;;;;;3.70;3.40;;;;;;;24.89;42.16;101371.19;5049773;27;97840;-75
2023/05/15 09:44:41;;;;;;;3.58;3.28;;;;;;;24.87;42.19;101367.75;5050799;27;96662;-75
2023/05/15 09:47:10;;;;;;;3.70;3.40;;;;;;;24.89;41.94;101365.69;5038930;27;100102;-75
2023/05/15 09:49:37;;;;;;;3.60;3.30;;;;;;;24.89;41.97;101362.94;5050818;27;97366;-76
2023/05/15 09:52:08;;;;;;;3.72;3.30;;;;;;;24.89;42.08;101366.53;5043754;27;96883;-73
2023/05/15 09:54:36;;;;;;;4.00;3.60;;;;;;;24.89;42.05;101369.28;5048376;27;96921;-75
2023/05/15 09:57:08;;;;;;;3.50;3.20;;;;;;;24.90;41.81;101362.75;5050909;27;98554;-76
2023/05/15 09:59:34;;;;;;;3.42;3.13;;;;;;;24.90;41.99;101372.88;5047082;27;98740;-76
2023/05/15 10:02:01;;;;;;;3.85;3.55;;;;;;;24.91;41.85;101367.19;5046656;27;96881;-76
2023/05/15 10:04:35;;;;;;;4.45;4.05;;;;;;;24.92;41.96;101368.06;5037975;27;96961;-76
2023/05/15 10:07:01;;;;;;;3.50;3.20;;;;;;;24.92;41.87;101368.06;5035710;27;96817;-76
2023/05/15 10:09:31;;;;;;;3.30;3.03;;;;;;;24.92;41.93;101362.56;5038847;27;97794;-76
2023/05/15 10:11:58;;;;;;;3.45;3.15;;;;;;;24.92;42.02;101365.31;5035774;27;96942;-77
2023/05/15 10:14:26;;;;;;;3.50;3.20;;;;;;;24.93;41.95;101367.00;5047378;27;97106;-76
2023/05/15 10:16:54;;;;;;;3.58;3.20;;;;;;;24.93;41.84;101359.63;5035381;27;96848;-76
2023/05/15 10:19:24;;;;;;;3.58;3.28;;;;;;;24.95;42.03;101359.41;5037059;27;97356;-75
2023/05/15 10:21:53;;;;;;;4.10;3.60;;;;;;;24.94;41.94;101366.81;5042241;27;96894;-76
2023/05/15 10:24:20;;;;;;;3.83;3.20;;;;;;;24.95;41.75;101368.53;5042402;27;96829;-77
2023/05/15 10:26:48;;;;;;;3.50;3.20;;;;;;;24.95;41.87;101370.41;5046322;27;97610;-76
2023/05/15 10:29:17;;;;;;;3.50;3.20;;;;;;;24.96;41.91;101369.38;5039063;27;98345;-76
2023/05/15 10:31:47;;;;;;;4.40;3.38;;;;;;;24.96;41.83;101375.72;5047291;27;96697;-75
2023/05/15 10:34:14;;;;;;;3.60;3.30;;;;;;;24.96;41.90;101372.13;5050270;27;97722;-75
2023/05/15 10:36:41;;;;;;;5.22;3.50;;;;;;;24.95;41.70;101368.53;5044396;27;97549;-75
2023/05/15 10:39:08;;;;;;;3.67;3.38;;;;;;;24.95;41.58;101363.03;5040168;27;96619;-77
2023/05/15 10:41:37;;;;;;;3.50;3.20;;;;;;;24.97;41.77;101366.47;5033629;27;96638;-77
2023/05/15 10:44:04;;;;;;;3.67;3.38;;;;;;;24.98;41.90;101367.31;5035146;27;97559;-76
2023/05/15 10:46:33;;;;;;;3.60;3.30;;;;;;;24.98;41.68;101370.91;5032724;27;96892;-77
2023/05/15 10:49:00;;;;;;;3.80;3.50;;;;;;;24.97;41.38;101363.72;5051979;27;96748;-76
2023/05/15 10:51:29;;;;;;;3.92;3.20;;;;;;;24.98;41.62;101368.16;5049304;27;97042;-76
2023/05/15 10:53:56;;;;;;;4.38;3.30;;;;;;;24.99;41.59;101358.03;5024916;27;97293;-76
2023/05/15 10:56:29;;;;;;;3.35;3.05;;;;;;;24.99;41.74;101360.78;5039383;27;97759;-76
2023/05/15 10:58:56;;;;;;;3.80;3.50;;;;;;;24.99;41.80;101366.28;5041890;27;97344;-76
2023/05/15 11:01:32;;;;;;;4.43;3.10;;;;;;;25.00;41.43;101368.84;5038172;27;96897;-76
2023/05/15 11:04:11;;;;;;;3.30;3.00;;;;;;;25.00;41.64;101368.84;5029567;27;96741;-76
2023/05/15 11:06:40;;;;;;;3.72;3.15;;;;;;;24.99;41.69;101367.13;5014574;28;98619;-74
2023/05/15 11:09:32;;;;;;;3.05;2.80;;;;;;;24.98;41.47;101368.16;5031321;27;98130;-75
2023/05/15 11:12:02;;;;;;;3.72;3.40;;;;;;;24.99;41.70;101369.03;5033003;27;97130;-77
2023/05/15 11:14:35;;;;;;;4.50;3.38;;;;;;;24.99;41.45;101369.88;5032524;27;96727;-76
2023/05/15 11:17:06;;;;;;;3.80;3.47;;;;;;;24.99;41.68;101369.88;5046566;27;98153;-77
2023/05/15 11:19:39;;;;;;;3.28;2.97;;;;;;;25.00;41.59;101370.72;5032131;27;96860;-77
2023/05/15 11:22:27;;;;;;;3.30;3.00;;;;;;;25.00;41.38;101370.72;5046357;27;96669;-76
2023/05/15 11:25:13;;;;;;;3.40;3.10;;;;;;;24.98;41.45;101359.94;5031856;27;96861;-77
2023/05/15 11:27:46;;;;;;;2.88;2.67;;;;;;;24.99;41.47;101372.63;5032563;27;96872;-76
2023/05/15 11:30:13;;;;;;;4.88;2.97;;;;;;;24.98;41.60;101367.31;5031841;27;97334;-76